sensor_id;sensor_type;location;lat;lon;timestamp;P1;durP1;ratioP1;P2;durP2;ratioP2
14892;SDS011;7538;53.626;9.906;2022-10-16T00:02:13;9.27;;;8.38;;
14892;SDS011;7538;53.626;9.906;2022-10-16T00:04:42;10.05;;;8.30;;
14892;SDS011;7538;53.626;9.906;2022-10-16T00:07:08;11.43;;;8.40;;
14892;SDS011;7538;53.626;9.906;2022-10-16T00:09:35;10.40;;;9.15;;
14892;SDS011;7538;53.626;9.906;2022-10-16T00:12:02;9.13;;;7.70;;
14892;SDS011;7538;53.626;9.906;2022-10-16T00:14:31;9.32;;;7.70;;
14892;SDS011;7538;53.626;9.906;2022-10-16T00:16:58;9.98;;;7.57;;
14892;SDS011;7538;53.626;9.906;2022-10-16T00:19:34;8.20;;;6.35;;
14892;SDS011;7538;53.626;9.906;2022-10-16T00:22:02;8.73;;;7.35;;
14892;SDS011;7538;53.626;9.906;2022-10-16T00:24:29;7.80;;;6.50;;
14892;SDS011;7538;53.626;9.906;2022-10-16T00:26:56;7.07;;;6.38;;
14892;SDS011;7538;53.626;9.906;2022-10-16T00:29:23;9.52;;;6.50;;
14892;SDS011;7538;53.626;9.906;2022-10-16T00:31:55;9.95;;;6.15;;
14892;SDS011;7538;53.626;9.906;2022-10-16T00:34:21;6.82;;;5.18;;
14892;SDS011;7538;53.626;9.906;2022-10-16T00:36:48;7.00;;;5.60;;
14892;SDS011;7538;53.626;9.906;2022-10-16T00:39:16;8.90;;;5.75;;
14892;SDS011;7538;53.626;9.906;2022-10-16T00:41:43;6.85;;;4.82;;
14892;SDS011;7538;53.626;9.906;2022-10-16T00:47:10;7.93;;;4.18;;
14892;SDS011;7538;53.626;9.906;2022-10-16T00:49:38;6.22;;;4.57;;
14892;SDS011;7538;53.626;9.906;2022-10-16T00:52:05;8.00;;;4.50;;
14892;SDS011;7538;53.626;9.906;2022-10-16T00:54:33;6.35;;;4.20;;
14892;SDS011;7538;53.626;9.906;2022-10-16T00:57:01;6.20;;;4.03;;
14892;SDS011;7538;53.626;9.906;2022-10-16T00:59:31;4.80;;;3.90;;
14892;SDS011;7538;53.626;9.906;2022-10-16T01:02:00;8.18;;;3.80;;
14892;SDS011;7538;53.626;9.906;2022-10-16T01:04:28;4.03;;;3.60;;
14892;SDS011;7538;53.626;9.906;2022-10-16T01:07:01;5.32;;;3.50;;
14892;SDS011;7538;53.626;9.906;2022-10-16T01:09:40;6.93;;;3.90;;
14892;SDS011;7538;53.626;9.906;2022-10-16T01:12:19;5.20;;;3.67;;
14892;SDS011;7538;53.626;9.906;2022-10-16T01:14:56;4.82;;;3.72;;
14892;SDS011;7538;53.626;9.906;2022-10-16T01:17:28;5.22;;;3.50;;
14892;SDS011;7538;53.626;9.906;2022-10-16T01:20:03;4.03;;;3.63;;
14892;SDS011;7538;53.626;9.906;2022-10-16T01:22:38;4.10;;;3.15;;
14892;SDS011;7538;53.626;9.906;2022-10-16T01:25:14;5.15;;;3.72;;
14892;SDS011;7538;53.626;9.906;2022-10-16T01:27:46;4.13;;;3.22;;
14892;SDS011;7538;53.626;9.906;2022-10-16T01:30:15;4.57;;;3.80;;
14892;SDS011;7538;53.626;9.906;2022-10-16T01:32:49;3.80;;;3.15;;
14892;SDS011;7538;53.626;9.906;2022-10-16T01:35:20;3.47;;;2.97;;
14892;SDS011;7538;53.626;9.906;2022-10-16T01:37:52;4.72;;;2.95;;
14892;SDS011;7538;53.626;9.906;2022-10-16T01:40:25;4.30;;;2.90;;
14892;SDS011;7538;53.626;9.906;2022-10-16T01:42:55;6.40;;;3.65;;
14892;SDS011;7538;53.626;9.906;2022-10-16T01:45:26;6.75;;;3.00;;
14892;SDS011;7538;53.626;9.906;2022-10-16T01:47:56;6.03;;;3.08;;
14892;SDS011;7538;53.626;9.906;2022-10-16T01:50:29;5.00;;;2.92;;
14892;SDS011;7538;53.626;9.906;2022-10-16T01:52:58;4.93;;;2.78;;
14892;SDS011;7538;53.626;9.906;2022-10-16T01:55:28;5.00;;;2.97;;
14892;SDS011;7538;53.626;9.906;2022-10-16T01:57:59;4.25;;;2.90;;
14892;SDS011;7538;53.626;9.906;2022-10-16T02:00:31;4.47;;;2.72;;
14892;SDS011;7538;53.626;9.906;2022-10-16T02:02:57;3.42;;;2.70;;
14892;SDS011;7538;53.626;9.906;2022-10-16T02:05:28;4.85;;;2.58;;
14892;SDS011;7538;53.626;9.906;2022-10-16T02:07:58;4.05;;;2.78;;
14892;SDS011;7538;53.626;9.906;2022-10-16T02:10:25;7.82;;;2.83;;
14892;SDS011;7538;53.626;9.906;2022-10-16T02:12:56;3.80;;;2.45;;
14892;SDS011;7538;53.626;9.906;2022-10-16T02:15:28;3.22;;;2.55;;
14892;SDS011;7538;53.626;9.906;2022-10-16T02:17:55;5.25;;;2.55;;
14892;SDS011;7538;53.626;9.906;2022-10-16T02:20:24;4.35;;;2.45;;
14892;SDS011;7538;53.626;9.906;2022-10-16T02:22:53;4.30;;;2.25;;
14892;SDS011;7538;53.626;9.906;2022-10-16T02:25:22;6.00;;;2.75;;
14892;SDS011;7538;53.626;9.906;2022-10-16T02:27:57;3.80;;;2.55;;
14892;SDS011;7538;53.626;9.906;2022-10-16T02:30:30;5.32;;;2.60;;
14892;SDS011;7538;53.626;9.906;2022-10-16T02:33:02;3.50;;;2.00;;
14892;SDS011;7538;53.626;9.906;2022-10-16T02:35:33;4.28;;;2.28;;
14892;SDS011;7538;53.626;9.906;2022-10-16T02:38:01;7.00;;;2.33;;
14892;SDS011;7538;53.626;9.906;2022-10-16T02:40:28;3.08;;;2.20;;
14892;SDS011;7538;53.626;9.906;2022-10-16T02:42:55;4.47;;;2.70;;
14892;SDS011;7538;53.626;9.906;2022-10-16T02:45:22;4.07;;;2.35;;
14892;SDS011;7538;53.626;9.906;2022-10-16T02:47:51;4.03;;;2.00;;
14892;SDS011;7538;53.626;9.906;2022-10-16T02:50:18;3.25;;;2.17;;
14892;SDS011;7538;53.626;9.906;2022-10-16T02:52:44;5.25;;;2.60;;
14892;SDS011;7538;53.626;9.906;2022-10-16T02:55:11;3.20;;;2.20;;
14892;SDS011;7538;53.626;9.906;2022-10-16T02:57:38;2.88;;;2.38;;
14892;SDS011;7538;53.626;9.906;2022-10-16T03:00:05;3.88;;;2.10;;
14892;SDS011;7538;53.626;9.906;2022-10-16T03:02:33;4.35;;;2.17;;
14892;SDS011;7538;53.626;9.906;2022-10-16T03:05:01;3.55;;;1.95;;
14892;SDS011;7538;53.626;9.906;2022-10-16T03:07:28;5.75;;;2.13;;
14892;SDS011;7538;53.626;9.906;2022-10-16T03:09:55;3.15;;;2.08;;
14892;SDS011;7538;53.626;9.906;2022-10-16T03:12:25;2.80;;;2.00;;
14892;SDS011;7538;53.626;9.906;2022-10-16T03:14:51;2.58;;;1.90;;
14892;SDS011;7538;53.626;9.906;2022-10-16T03:17:18;2.85;;;1.90;;
14892;SDS011;7538;53.626;9.906;2022-10-16T03:19:45;1.83;;;1.65;;
14892;SDS011;7538;53.626;9.906;2022-10-16T03:22:13;4.28;;;1.70;;
14892;SDS011;7538;53.626;9.906;2022-10-16T03:24:40;4.40;;;2.03;;
14892;SDS011;7538;53.626;9.906;2022-10-16T03:27:06;6.57;;;2.03;;
14892;SDS011;7538;53.626;9.906;2022-10-16T03:29:33;5.13;;;2.17;;
14892;SDS011;7538;53.626;9.906;2022-10-16T03:32:00;6.40;;;2.28;;
14892;SDS011;7538;53.626;9.906;2022-10-16T03:34:27;3.38;;;2.30;;
14892;SDS011;7538;53.626;9.906;2022-10-16T03:36:54;3.83;;;2.50;;
14892;SDS011;7538;53.626;9.906;2022-10-16T03:39:22;3.20;;;2.00;;
14892;SDS011;7538;53.626;9.906;2022-10-16T03:41:49;2.65;;;1.83;;
14892;SDS011;7538;53.626;9.906;2022-10-16T03:44:16;4.15;;;2.05;;
14892;SDS011;7538;53.626;9.906;2022-10-16T03:46:43;3.05;;;1.90;;
14892;SDS011;7538;53.626;9.906;2022-10-16T03:49:09;6.63;;;2.10;;
14892;SDS011;7538;53.626;9.906;2022-10-16T03:51:36;5.13;;;1.98;;
14892;SDS011;7538;53.626;9.906;2022-10-16T03:54:03;4.00;;;1.80;;
14892;SDS011;7538;53.626;9.906;2022-10-16T03:56:31;2.95;;;2.05;;
14892;SDS011;7538;53.626;9.906;2022-10-16T03:58:58;3.22;;;2.00;;
14892;SDS011;7538;53.626;9.906;2022-10-16T04:01:25;6.60;;;2.42;;
14892;SDS011;7538;53.626;9.906;2022-10-16T04:03:52;3.03;;;2.03;;
14892;SDS011;7538;53.626;9.906;2022-10-16T04:06:18;6.07;;;1.75;;
14892;SDS011;7538;53.626;9.906;2022-10-16T04:08:45;5.18;;;2.20;;
14892;SDS011;7538;53.626;9.906;2022-10-16T04:11:12;3.65;;;2.22;;
14892;SDS011;7538;53.626;9.906;2022-10-16T04:13:40;6.13;;;2.13;;
14892;SDS011;7538;53.626;9.906;2022-10-16T04:16:07;5.18;;;2.20;;
14892;SDS011;7538;53.626;9.906;2022-10-16T04:18:34;2.67;;;2.13;;
14892;SDS011;7538;53.626;9.906;2022-10-16T04:21:02;3.17;;;2.20;;
14892;SDS011;7538;53.626;9.906;2022-10-16T04:23:29;3.53;;;2.13;;
14892;SDS011;7538;53.626;9.906;2022-10-16T04:25:56;2.50;;;1.63;;
14892;SDS011;7538;53.626;9.906;2022-10-16T04:28:22;3.50;;;2.00;;
14892;SDS011;7538;53.626;9.906;2022-10-16T04:30:51;4.32;;;1.98;;
14892;SDS011;7538;53.626;9.906;2022-10-16T04:33:17;3.58;;;2.45;;
14892;SDS011;7538;53.626;9.906;2022-10-16T04:35:44;4.38;;;2.08;;
14892;SDS011;7538;53.626;9.906;2022-10-16T04:38:11;2.47;;;1.85;;
14892;SDS011;7538;53.626;9.906;2022-10-16T04:40:37;4.68;;;2.20;;
14892;SDS011;7538;53.626;9.906;2022-10-16T04:43:04;6.15;;;2.05;;
14892;SDS011;7538;53.626;9.906;2022-10-16T04:45:32;3.53;;;1.92;;
14892;SDS011;7538;53.626;9.906;2022-10-16T04:48:00;6.25;;;2.10;;
14892;SDS011;7538;53.626;9.906;2022-10-16T04:50:27;5.43;;;2.13;;
14892;SDS011;7538;53.626;9.906;2022-10-16T04:52:54;6.03;;;2.25;;
14892;SDS011;7538;53.626;9.906;2022-10-16T04:55:20;4.80;;;2.00;;
14892;SDS011;7538;53.626;9.906;2022-10-16T04:57:47;5.90;;;2.15;;
14892;SDS011;7538;53.626;9.906;2022-10-16T05:00:14;3.10;;;2.00;;
14892;SDS011;7538;53.626;9.906;2022-10-16T05:02:41;4.15;;;1.95;;
14892;SDS011;7538;53.626;9.906;2022-10-16T05:05:09;3.13;;;2.22;;
14892;SDS011;7538;53.626;9.906;2022-10-16T05:07:36;4.18;;;2.20;;
14892;SDS011;7538;53.626;9.906;2022-10-16T05:10:03;5.00;;;2.58;;
14892;SDS011;7538;53.626;9.906;2022-10-16T05:12:31;5.13;;;2.15;;
14892;SDS011;7538;53.626;9.906;2022-10-16T05:14:58;5.70;;;2.85;;
14892;SDS011;7538;53.626;9.906;2022-10-16T05:17:25;6.68;;;2.97;;
14892;SDS011;7538;53.626;9.906;2022-10-16T05:19:52;5.93;;;2.97;;
14892;SDS011;7538;53.626;9.906;2022-10-16T05:22:20;5.38;;;2.72;;
14892;SDS011;7538;53.626;9.906;2022-10-16T05:24:47;5.07;;;3.35;;
14892;SDS011;7538;53.626;9.906;2022-10-16T05:27:13;6.90;;;2.95;;
14892;SDS011;7538;53.626;9.906;2022-10-16T05:29:44;5.45;;;2.88;;
14892;SDS011;7538;53.626;9.906;2022-10-16T05:32:12;6.07;;;3.33;;
14892;SDS011;7538;53.626;9.906;2022-10-16T05:34:38;4.32;;;3.10;;
14892;SDS011;7538;53.626;9.906;2022-10-16T05:37:05;4.43;;;3.67;;
14892;SDS011;7538;53.626;9.906;2022-10-16T05:39:34;8.15;;;3.75;;
14892;SDS011;7538;53.626;9.906;2022-10-16T05:42:01;4.75;;;3.30;;
14892;SDS011;7538;53.626;9.906;2022-10-16T05:44:28;5.80;;;3.28;;
14892;SDS011;7538;53.626;9.906;2022-10-16T05:46:55;8.45;;;4.05;;
14892;SDS011;7538;53.626;9.906;2022-10-16T05:49:22;7.63;;;4.10;;
14892;SDS011;7538;53.626;9.906;2022-10-16T05:51:49;6.80;;;3.63;;
14892;SDS011;7538;53.626;9.906;2022-10-16T05:54:16;7.20;;;3.78;;
14892;SDS011;7538;53.626;9.906;2022-10-16T05:56:44;6.45;;;4.13;;
14892;SDS011;7538;53.626;9.906;2022-10-16T05:59:11;6.20;;;3.65;;
14892;SDS011;7538;53.626;9.906;2022-10-16T06:01:37;5.07;;;3.80;;
14892;SDS011;7538;53.626;9.906;2022-10-16T06:04:04;6.80;;;3.30;;
14892;SDS011;7538;53.626;9.906;2022-10-16T06:06:31;5.60;;;3.65;;
14892;SDS011;7538;53.626;9.906;2022-10-16T06:08:57;4.72;;;3.67;;
14892;SDS011;7538;53.626;9.906;2022-10-16T06:11:25;7.38;;;3.47;;
14892;SDS011;7538;53.626;9.906;2022-10-16T06:13:56;6.30;;;3.90;;
14892;SDS011;7538;53.626;9.906;2022-10-16T06:16:25;5.97;;;3.28;;
14892;SDS011;7538;53.626;9.906;2022-10-16T06:18:53;9.02;;;3.65;;
14892;SDS011;7538;53.626;9.906;2022-10-16T06:21:21;5.28;;;3.35;;
14892;SDS011;7538;53.626;9.906;2022-10-16T06:23:49;5.47;;;3.47;;
14892;SDS011;7538;53.626;9.906;2022-10-16T06:26:17;8.70;;;3.45;;
14892;SDS011;7538;53.626;9.906;2022-10-16T06:28:48;5.95;;;3.10;;
14892;SDS011;7538;53.626;9.906;2022-10-16T06:31:17;6.63;;;3.55;;
14892;SDS011;7538;53.626;9.906;2022-10-16T06:33:50;7.53;;;3.55;;
14892;SDS011;7538;53.626;9.906;2022-10-16T06:36:32;6.47;;;4.00;;
14892;SDS011;7538;53.626;9.906;2022-10-16T06:38:59;5.07;;;3.20;;
14892;SDS011;7538;53.626;9.906;2022-10-16T06:41:25;6.20;;;3.17;;
14892;SDS011;7538;53.626;9.906;2022-10-16T06:43:52;6.03;;;3.10;;
14892;SDS011;7538;53.626;9.906;2022-10-16T06:46:21;5.88;;;3.40;;
14892;SDS011;7538;53.626;9.906;2022-10-16T06:48:48;7.75;;;3.67;;
14892;SDS011;7538;53.626;9.906;2022-10-16T06:54:37;10.25;;;3.97;;
14892;SDS011;7538;53.626;9.906;2022-10-16T06:57:04;5.57;;;2.95;;
14892;SDS011;7538;53.626;9.906;2022-10-16T06:59:31;5.60;;;3.20;;
14892;SDS011;7538;53.626;9.906;2022-10-16T07:01:59;5.85;;;3.58;;
14892;SDS011;7538;53.626;9.906;2022-10-16T07:04:26;5.53;;;3.53;;
14892;SDS011;7538;53.626;9.906;2022-10-16T07:06:53;5.90;;;3.60;;
14892;SDS011;7538;53.626;9.906;2022-10-16T07:09:19;3.80;;;3.13;;
14892;SDS011;7538;53.626;9.906;2022-10-16T07:11:46;5.47;;;3.40;;
14892;SDS011;7538;53.626;9.906;2022-10-16T07:14:14;4.93;;;3.30;;
14892;SDS011;7538;53.626;9.906;2022-10-16T07:16:43;4.65;;;3.67;;
14892;SDS011;7538;53.626;9.906;2022-10-16T07:19:12;6.78;;;3.50;;
14892;SDS011;7538;53.626;9.906;2022-10-16T07:21:40;5.70;;;3.78;;
14892;SDS011;7538;53.626;9.906;2022-10-16T07:24:10;5.20;;;3.40;;
14892;SDS011;7538;53.626;9.906;2022-10-16T07:26:38;4.53;;;3.55;;
14892;SDS011;7538;53.626;9.906;2022-10-16T07:29:15;4.80;;;3.65;;
14892;SDS011;7538;53.626;9.906;2022-10-16T07:31:43;7.38;;;3.85;;
14892;SDS011;7538;53.626;9.906;2022-10-16T07:34:12;6.75;;;4.40;;
14892;SDS011;7538;53.626;9.906;2022-10-16T07:40:02;4.72;;;3.03;;
14892;SDS011;7538;53.626;9.906;2022-10-16T07:42:30;4.80;;;3.20;;
14892;SDS011;7538;53.626;9.906;2022-10-16T07:44:57;3.83;;;3.15;;
14892;SDS011;7538;53.626;9.906;2022-10-16T07:50:47;5.10;;;3.65;;
14892;SDS011;7538;53.626;9.906;2022-10-16T07:53:14;5.20;;;3.33;;
14892;SDS011;7538;53.626;9.906;2022-10-16T07:55:41;4.15;;;3.17;;
14892;SDS011;7538;53.626;9.906;2022-10-16T07:58:08;4.35;;;3.45;;
14892;SDS011;7538;53.626;9.906;2022-10-16T08:00:35;5.25;;;3.28;;
14892;SDS011;7538;53.626;9.906;2022-10-16T08:03:02;4.93;;;3.70;;
14892;SDS011;7538;53.626;9.906;2022-10-16T08:05:30;4.30;;;3.60;;
14892;SDS011;7538;53.626;9.906;2022-10-16T08:07:59;4.78;;;3.28;;
14892;SDS011;7538;53.626;9.906;2022-10-16T08:10:27;5.25;;;3.58;;
14892;SDS011;7538;53.626;9.906;2022-10-16T08:13:02;3.97;;;3.47;;
14892;SDS011;7538;53.626;9.906;2022-10-16T08:15:28;4.90;;;2.95;;
14892;SDS011;7538;53.626;9.906;2022-10-16T08:18:33;5.28;;;3.60;;
14892;SDS011;7538;53.626;9.906;2022-10-16T08:20:44;4.13;;;3.13;;
14892;SDS011;7538;53.626;9.906;2022-10-16T08:23:12;5.78;;;3.67;;
14892;SDS011;7538;53.626;9.906;2022-10-16T08:25:39;5.18;;;3.20;;
14892;SDS011;7538;53.626;9.906;2022-10-16T08:28:07;4.68;;;3.10;;
14892;SDS011;7538;53.626;9.906;2022-10-16T08:30:35;3.55;;;2.90;;
14892;SDS011;7538;53.626;9.906;2022-10-16T08:33:02;6.47;;;3.13;;
14892;SDS011;7538;53.626;9.906;2022-10-16T08:35:29;5.40;;;2.80;;
14892;SDS011;7538;53.626;9.906;2022-10-16T08:37:56;3.72;;;3.10;;
14892;SDS011;7538;53.626;9.906;2022-10-16T08:40:29;4.25;;;2.95;;
14892;SDS011;7538;53.626;9.906;2022-10-16T08:46:04;4.65;;;3.03;;
14892;SDS011;7538;53.626;9.906;2022-10-16T08:48:53;5.10;;;3.13;;
14892;SDS011;7538;53.626;9.906;2022-10-16T08:51:29;4.32;;;2.70;;
14892;SDS011;7538;53.626;9.906;2022-10-16T08:53:59;3.80;;;2.38;;
14892;SDS011;7538;53.626;9.906;2022-10-16T08:56:31;4.03;;;2.53;;
14892;SDS011;7538;53.626;9.906;2022-10-16T08:58:58;3.85;;;2.85;;
14892;SDS011;7538;53.626;9.906;2022-10-16T09:01:29;6.20;;;2.50;;
14892;SDS011;7538;53.626;9.906;2022-10-16T09:04:18;3.83;;;2.60;;
14892;SDS011;7538;53.626;9.906;2022-10-16T09:07:15;3.03;;;2.22;;
14892;SDS011;7538;53.626;9.906;2022-10-16T09:09:56;3.22;;;2.65;;
14892;SDS011;7538;53.626;9.906;2022-10-16T09:12:33;4.03;;;2.65;;
14892;SDS011;7538;53.626;9.906;2022-10-16T09:15:06;2.95;;;2.25;;
14892;SDS011;7538;53.626;9.906;2022-10-16T09:17:43;3.13;;;2.20;;
14892;SDS011;7538;53.626;9.906;2022-10-16T09:20:19;3.65;;;2.40;;
14892;SDS011;7538;53.626;9.906;2022-10-16T09:22:55;3.28;;;2.00;;
14892;SDS011;7538;53.626;9.906;2022-10-16T09:25:49;4.50;;;2.15;;
14892;SDS011;7538;53.626;9.906;2022-10-16T09:28:17;4.18;;;1.90;;
14892;SDS011;7538;53.626;9.906;2022-10-16T09:30:44;3.47;;;2.10;;
14892;SDS011;7538;53.626;9.906;2022-10-16T09:33:25;4.10;;;2.10;;
14892;SDS011;7538;53.626;9.906;2022-10-16T09:35:56;5.38;;;2.20;;
14892;SDS011;7538;53.626;9.906;2022-10-16T09:38:25;3.40;;;1.95;;
14892;SDS011;7538;53.626;9.906;2022-10-16T09:40:54;3.33;;;1.70;;
14892;SDS011;7538;53.626;9.906;2022-10-16T09:46:28;3.03;;;1.80;;
14892;SDS011;7538;53.626;9.906;2022-10-16T09:48:57;5.03;;;2.30;;
14892;SDS011;7538;53.626;9.906;2022-10-16T09:54:51;2.42;;;1.92;;
14892;SDS011;7538;53.626;9.906;2022-10-16T09:57:18;5.50;;;2.03;;
14892;SDS011;7538;53.626;9.906;2022-10-16T09:59:48;3.67;;;2.15;;
14892;SDS011;7538;53.626;9.906;2022-10-16T10:02:16;3.67;;;1.65;;
14892;SDS011;7538;53.626;9.906;2022-10-16T10:04:48;4.53;;;1.90;;
14892;SDS011;7538;53.626;9.906;2022-10-16T10:07:20;4.28;;;1.83;;
14892;SDS011;7538;53.626;9.906;2022-10-16T10:09:50;2.97;;;1.95;;
14892;SDS011;7538;53.626;9.906;2022-10-16T10:12:18;3.25;;;2.05;;
14892;SDS011;7538;53.626;9.906;2022-10-16T10:14:48;2.42;;;1.75;;
14892;SDS011;7538;53.626;9.906;2022-10-16T10:17:18;5.40;;;1.88;;
14892;SDS011;7538;53.626;9.906;2022-10-16T10:22:47;6.13;;;1.70;;
14892;SDS011;7538;53.626;9.906;2022-10-16T10:25:35;4.93;;;2.10;;
14892;SDS011;7538;53.626;9.906;2022-10-16T10:31:36;4.60;;;1.85;;
14892;SDS011;7538;53.626;9.906;2022-10-16T10:36:43;5.90;;;1.85;;
14892;SDS011;7538;53.626;9.906;2022-10-16T10:39:17;6.82;;;2.60;;
14892;SDS011;7538;53.626;9.906;2022-10-16T10:45:25;6.05;;;1.67;;
14892;SDS011;7538;53.626;9.906;2022-10-16T10:48:02;5.10;;;1.80;;
14892;SDS011;7538;53.626;9.906;2022-10-16T10:50:39;5.32;;;1.95;;
14892;SDS011;7538;53.626;9.906;2022-10-16T10:53:11;3.25;;;2.00;;
14892;SDS011;7538;53.626;9.906;2022-10-16T10:55:59;3.75;;;1.60;;
14892;SDS011;7538;53.626;9.906;2022-10-16T11:01:54;5.15;;;1.73;;
14892;SDS011;7538;53.626;9.906;2022-10-16T11:07:16;2.13;;;1.10;;
14892;SDS011;7538;53.626;9.906;2022-10-16T11:12:55;2.75;;;1.20;;
14892;SDS011;7538;53.626;9.906;2022-10-16T11:15:36;2.15;;;1.52;;
14892;SDS011;7538;53.626;9.906;2022-10-16T11:18:06;5.18;;;1.63;;
14892;SDS011;7538;53.626;9.906;2022-10-16T11:20:39;2.30;;;1.23;;
14892;SDS011;7538;53.626;9.906;2022-10-16T11:23:13;4.57;;;1.27;;
14892;SDS011;7538;53.626;9.906;2022-10-16T11:25:44;4.95;;;1.45;;
14892;SDS011;7538;53.626;9.906;2022-10-16T11:31:36;6.20;;;1.50;;
14892;SDS011;7538;53.626;9.906;2022-10-16T11:34:06;6.38;;;1.48;;
14892;SDS011;7538;53.626;9.906;2022-10-16T11:36:44;4.78;;;1.42;;
14892;SDS011;7538;53.626;9.906;2022-10-16T11:39:19;3.88;;;1.20;;
14892;SDS011;7538;53.626;9.906;2022-10-16T11:41:48;12.80;;;4.90;;
14892;SDS011;7538;53.626;9.906;2022-10-16T11:44:51;6.80;;;2.58;;
14892;SDS011;7538;53.626;9.906;2022-10-16T11:47:27;2.80;;;1.30;;
14892;SDS011;7538;53.626;9.906;2022-10-16T11:53:09;4.20;;;2.00;;
14892;SDS011;7538;53.626;9.906;2022-10-16T11:55:44;5.22;;;1.75;;
14892;SDS011;7538;53.626;9.906;2022-10-16T11:58:15;6.40;;;1.85;;
14892;SDS011;7538;53.626;9.906;2022-10-16T12:00:51;6.38;;;1.98;;
14892;SDS011;7538;53.626;9.906;2022-10-16T12:03:23;5.72;;;1.67;;
14892;SDS011;7538;53.626;9.906;2022-10-16T12:05:58;5.72;;;1.40;;
14892;SDS011;7538;53.626;9.906;2022-10-16T12:08:43;5.25;;;1.40;;
14892;SDS011;7538;53.626;9.906;2022-10-16T12:11:22;9.07;;;3.00;;
14892;SDS011;7538;53.626;9.906;2022-10-16T12:14:03;6.07;;;2.33;;
14892;SDS011;7538;53.626;9.906;2022-10-16T12:16:51;12.23;;;3.13;;
14892;SDS011;7538;53.626;9.906;2022-10-16T12:19:19;4.38;;;1.55;;
14892;SDS011;7538;53.626;9.906;2022-10-16T12:21:47;6.10;;;1.65;;
14892;SDS011;7538;53.626;9.906;2022-10-16T12:24:20;3.42;;;1.55;;
14892;SDS011;7538;53.626;9.906;2022-10-16T12:26:55;3.95;;;1.52;;
14892;SDS011;7538;53.626;9.906;2022-10-16T12:29:32;4.65;;;1.42;;
14892;SDS011;7538;53.626;9.906;2022-10-16T12:32:01;5.28;;;1.65;;
14892;SDS011;7538;53.626;9.906;2022-10-16T12:34:32;3.65;;;1.42;;
14892;SDS011;7538;53.626;9.906;2022-10-16T12:37:11;3.38;;;1.50;;
14892;SDS011;7538;53.626;9.906;2022-10-16T12:39:40;4.10;;;1.45;;
14892;SDS011;7538;53.626;9.906;2022-10-16T12:42:20;4.35;;;1.67;;
14892;SDS011;7538;53.626;9.906;2022-10-16T12:44:59;4.57;;;1.42;;
14892;SDS011;7538;53.626;9.906;2022-10-16T12:47:35;3.28;;;1.20;;
14892;SDS011;7538;53.626;9.906;2022-10-16T12:52:53;2.53;;;1.55;;
14892;SDS011;7538;53.626;9.906;2022-10-16T12:55:21;4.63;;;1.55;;
14892;SDS011;7538;53.626;9.906;2022-10-16T12:57:56;3.53;;;1.30;;
14892;SDS011;7538;53.626;9.906;2022-10-16T13:00:32;4.95;;;1.60;;
14892;SDS011;7538;53.626;9.906;2022-10-16T13:03:13;4.28;;;1.58;;
14892;SDS011;7538;53.626;9.906;2022-10-16T13:05:59;5.07;;;1.40;;
14892;SDS011;7538;53.626;9.906;2022-10-16T13:08:38;5.40;;;1.60;;
14892;SDS011;7538;53.626;9.906;2022-10-16T13:11:16;10.55;;;1.83;;
14892;SDS011;7538;53.626;9.906;2022-10-16T13:13:53;6.03;;;1.38;;
14892;SDS011;7538;53.626;9.906;2022-10-16T13:16:30;5.13;;;1.55;;
14892;SDS011;7538;53.626;9.906;2022-10-16T13:19:08;4.82;;;1.60;;
14892;SDS011;7538;53.626;9.906;2022-10-16T13:21:43;8.07;;;4.60;;
14892;SDS011;7538;53.626;9.906;2022-10-16T13:24:18;4.32;;;1.85;;
14892;SDS011;7538;53.626;9.906;2022-10-16T13:27:01;5.78;;;1.20;;
14892;SDS011;7538;53.626;9.906;2022-10-16T13:29:34;4.88;;;1.80;;
14892;SDS011;7538;53.626;9.906;2022-10-16T13:32:01;11.68;;;4.07;;
14892;SDS011;7538;53.626;9.906;2022-10-16T13:34:41;3.55;;;1.25;;
14892;SDS011;7538;53.626;9.906;2022-10-16T13:40:28;4.75;;;1.60;;
14892;SDS011;7538;53.626;9.906;2022-10-16T13:42:54;4.68;;;1.58;;
14892;SDS011;7538;53.626;9.906;2022-10-16T13:45:23;4.70;;;1.80;;
14892;SDS011;7538;53.626;9.906;2022-10-16T13:48:00;3.35;;;1.13;;
14892;SDS011;7538;53.626;9.906;2022-10-16T13:50:28;3.70;;;1.23;;
14892;SDS011;7538;53.626;9.906;2022-10-16T13:53:02;4.82;;;1.83;;
14892;SDS011;7538;53.626;9.906;2022-10-16T13:55:30;5.20;;;1.40;;
14892;SDS011;7538;53.626;9.906;2022-10-16T13:58:04;6.28;;;2.10;;
14892;SDS011;7538;53.626;9.906;2022-10-16T14:00:32;6.57;;;1.60;;
14892;SDS011;7538;53.626;9.906;2022-10-16T14:03:01;5.60;;;1.45;;
14892;SDS011;7538;53.626;9.906;2022-10-16T14:05:30;6.32;;;1.98;;
14892;SDS011;7538;53.626;9.906;2022-10-16T14:07:57;3.72;;;1.55;;
14892;SDS011;7538;53.626;9.906;2022-10-16T14:10:25;5.13;;;1.50;;
14892;SDS011;7538;53.626;9.906;2022-10-16T14:12:55;4.78;;;1.45;;
14892;SDS011;7538;53.626;9.906;2022-10-16T14:15:24;3.63;;;1.58;;
14892;SDS011;7538;53.626;9.906;2022-10-16T14:17:52;3.83;;;1.38;;
14892;SDS011;7538;53.626;9.906;2022-10-16T14:20:20;5.00;;;1.52;;
14892;SDS011;7538;53.626;9.906;2022-10-16T14:22:58;4.45;;;1.60;;
14892;SDS011;7538;53.626;9.906;2022-10-16T14:25:27;6.28;;;1.67;;
14892;SDS011;7538;53.626;9.906;2022-10-16T14:30:59;4.47;;;1.73;;
14892;SDS011;7538;53.626;9.906;2022-10-16T14:33:32;4.07;;;1.75;;
14892;SDS011;7538;53.626;9.906;2022-10-16T14:36:01;3.58;;;1.40;;
14892;SDS011;7538;53.626;9.906;2022-10-16T14:38:31;3.63;;;1.70;;
14892;SDS011;7538;53.626;9.906;2022-10-16T14:40:59;5.65;;;1.65;;
14892;SDS011;7538;53.626;9.906;2022-10-16T14:43:29;4.22;;;1.50;;
14892;SDS011;7538;53.626;9.906;2022-10-16T14:45:59;4.47;;;1.55;;
14892;SDS011;7538;53.626;9.906;2022-10-16T14:48:27;4.35;;;1.65;;
14892;SDS011;7538;53.626;9.906;2022-10-16T14:50:55;4.18;;;1.40;;
14892;SDS011;7538;53.626;9.906;2022-10-16T14:53:22;5.20;;;1.30;;
14892;SDS011;7538;53.626;9.906;2022-10-16T14:55:49;2.58;;;1.73;;
14892;SDS011;7538;53.626;9.906;2022-10-16T14:58:17;6.47;;;1.77;;
14892;SDS011;7538;53.626;9.906;2022-10-16T15:00:45;7.35;;;2.20;;
14892;SDS011;7538;53.626;9.906;2022-10-16T15:03:12;5.90;;;1.55;;
14892;SDS011;7538;53.626;9.906;2022-10-16T15:05:39;3.28;;;1.40;;
14892;SDS011;7538;53.626;9.906;2022-10-16T15:08:07;3.15;;;1.23;;
14892;SDS011;7538;53.626;9.906;2022-10-16T15:10:35;3.92;;;1.65;;
14892;SDS011;7538;53.626;9.906;2022-10-16T15:13:08;4.40;;;1.40;;
14892;SDS011;7538;53.626;9.906;2022-10-16T15:15:38;4.05;;;1.73;;
14892;SDS011;7538;53.626;9.906;2022-10-16T15:18:08;6.78;;;2.00;;
14892;SDS011;7538;53.626;9.906;2022-10-16T15:20:36;4.07;;;1.85;;
14892;SDS011;7538;53.626;9.906;2022-10-16T15:23:04;3.83;;;1.40;;
14892;SDS011;7538;53.626;9.906;2022-10-16T15:25:37;4.97;;;1.70;;
14892;SDS011;7538;53.626;9.906;2022-10-16T15:28:05;4.25;;;1.95;;
14892;SDS011;7538;53.626;9.906;2022-10-16T15:30:33;3.90;;;1.55;;
14892;SDS011;7538;53.626;9.906;2022-10-16T15:33:00;4.28;;;1.40;;
14892;SDS011;7538;53.626;9.906;2022-10-16T15:35:28;6.07;;;1.88;;
14892;SDS011;7538;53.626;9.906;2022-10-16T15:37:55;4.38;;;1.40;;
14892;SDS011;7538;53.626;9.906;2022-10-16T15:40:22;4.10;;;1.60;;
14892;SDS011;7538;53.626;9.906;2022-10-16T15:42:50;4.35;;;1.48;;
14892;SDS011;7538;53.626;9.906;2022-10-16T15:45:17;3.47;;;1.40;;
14892;SDS011;7538;53.626;9.906;2022-10-16T15:47:45;4.43;;;1.77;;
14892;SDS011;7538;53.626;9.906;2022-10-16T15:50:12;6.03;;;1.75;;
14892;SDS011;7538;53.626;9.906;2022-10-16T15:52:40;5.68;;;2.22;;
14892;SDS011;7538;53.626;9.906;2022-10-16T15:55:08;8.00;;;2.40;;
14892;SDS011;7538;53.626;9.906;2022-10-16T15:57:36;5.40;;;2.20;;
14892;SDS011;7538;53.626;9.906;2022-10-16T16:00:07;6.45;;;2.38;;
14892;SDS011;7538;53.626;9.906;2022-10-16T16:02:36;3.17;;;1.85;;
14892;SDS011;7538;53.626;9.906;2022-10-16T16:05:03;5.43;;;1.70;;
14892;SDS011;7538;53.626;9.906;2022-10-16T16:07:32;5.60;;;2.03;;
14892;SDS011;7538;53.626;9.906;2022-10-16T16:09:59;5.13;;;1.92;;
14892;SDS011;7538;53.626;9.906;2022-10-16T16:12:26;7.28;;;2.15;;
14892;SDS011;7538;53.626;9.906;2022-10-16T16:14:52;3.97;;;1.90;;
14892;SDS011;7538;53.626;9.906;2022-10-16T16:17:21;5.63;;;2.33;;
14892;SDS011;7538;53.626;9.906;2022-10-16T16:19:48;3.10;;;1.88;;